Hawthorne, NJ

12:05 AM EDT on March 27, 2015 (GMT -0400)
Hawthorne, NJ | | Change Station
CLOSE
Current Station
Personal Weather Station
Location: Hawthorne, NJ
Elevation: 52 ft
Nearby Weather Stations

Elev 52 ft 40.94 °N, 74.15 °W | Updated 9 seconds ago

Mostly Cloudy
Mostly Cloudy
44.0 °F
Feels Like 41 °F
N
6.0
Wind Variable Wind from NNW
Gusts 8.0 mph

Today
High -- | Low -- °F
--% Chance of Precip.
Yesterday
High -- | Low -- °F
Precip. -- in
6:48 AM 7:15 PM
Waxing Crescent, 48% visible
Pressure 29.70 in
Visibility 10.0 miles
Clouds Overcast 1000 ft
Windchill 41 °F
Dew Point 43 °F
Humidity 96%
Rainfall 0.00 in
Snow Depth Not available.
UV 0.0 out of 12
Pollen 4.10 out of 12
Air Quality Not available.
Flu Activity Not available.
METAR KCDW 270353Z VRB06KT 10SM -RA OVC010 07/04 A2968 RMK AO2 SLP057 P0000 T00670044

More Conditions Fewer Conditions

Pressure 29.70 in
Visibility 10.0 miles
Clouds Overcast 1000 ft
Windchill 41 °F
Dew Point 43 °F
Humidity 96%
Rainfall 0.00 in
Snow Depth Not available.
UV 0.0 out of 12
Pollen 4.10 out of 12
Air Quality Not available.
Flu Activity Not available.
METAR KCDW 270353Z VRB06KT 10SM -RA OVC010 07/04 A2968 RMK AO2 SLP057 P0000 T00670044

More Conditions Fewer Conditions

10-Day Weather Forecast

Almanac

Astronomy

Mar. 27, 2015 Rise Set
Actual Time
Civil Twilight
Nautical Twilight
Astronomical Twilight
Moon
Length of Visible Light
Length of Day
Tomorrow will be .
, % of the Moon is Illuminated

Today's Extremes

State Highs State Lows

Community

WunderPhotos

Upload Photos

1,808,706 photos uploaded!

WunderBlogs® & News

Nearby

Air Quality

  Air Quality AQ Index Pollutant
Not available.

Snow Depth

Station Depth Elevation

Earthquake Activity

City Distance Mag. Time & Date
Minimum magnitude displayed is 2.5.

Coastal Water Temperatures

Place Temperature

Stations

Nearby Weather Stations

Station Location Temp. Windchill Dew Point Humidity Wind Precip. Elev Updated Type